sensor_id;sensor_type;location;lat;lon;timestamp;P1;durP1;ratioP1;P2;durP2;ratioP2
16330;SDS011;8275;48.206;16.340;2023-08-24T00:01:01;8.73;;;6.03;;
16330;SDS011;8275;48.206;16.340;2023-08-24T00:03:30;6.70;;;6.13;;
16330;SDS011;8275;48.206;16.340;2023-08-24T00:05:59;8.52;;;7.80;;
16330;SDS011;8275;48.206;16.340;2023-08-24T00:08:28;7.65;;;6.63;;
16330;SDS011;8275;48.206;16.340;2023-08-24T00:10:58;9.88;;;7.18;;
16330;SDS011;8275;48.206;16.340;2023-08-24T00:13:27;12.43;;;7.70;;
16330;SDS011;8275;48.206;16.340;2023-08-24T00:15:55;7.45;;;6.85;;
16330;SDS011;8275;48.206;16.340;2023-08-24T00:18:24;8.20;;;7.50;;
16330;SDS011;8275;48.206;16.340;2023-08-24T00:20:53;8.00;;;7.28;;
16330;SDS011;8275;48.206;16.340;2023-08-24T00:23:21;7.47;;;6.78;;
16330;SDS011;8275;48.206;16.340;2023-08-24T00:25:50;7.28;;;6.68;;
16330;SDS011;8275;48.206;16.340;2023-08-24T00:28:20;8.07;;;7.43;;
16330;SDS011;8275;48.206;16.340;2023-08-24T00:30:48;7.88;;;7.18;;
16330;SDS011;8275;48.206;16.340;2023-08-24T00:33:17;9.38;;;7.03;;
16330;SDS011;8275;48.206;16.340;2023-08-24T00:35:45;8.00;;;7.20;;
16330;SDS011;8275;48.206;16.340;2023-08-24T00:38:14;9.65;;;7.70;;
16330;SDS011;8275;48.206;16.340;2023-08-24T00:40:42;7.72;;;7.07;;
16330;SDS011;8275;48.206;16.340;2023-08-24T00:43:11;7.07;;;6.18;;
16330;SDS011;8275;48.206;16.340;2023-08-24T00:45:42;6.97;;;6.30;;
16330;SDS011;8275;48.206;16.340;2023-08-24T00:48:11;8.27;;;7.32;;
16330;SDS011;8275;48.206;16.340;2023-08-24T00:50:40;6.20;;;5.70;;
16330;SDS011;8275;48.206;16.340;2023-08-24T00:53:08;8.73;;;7.65;;
16330;SDS011;8275;48.206;16.340;2023-08-24T00:55:37;7.18;;;6.47;;
16330;SDS011;8275;48.206;16.340;2023-08-24T00:58:06;10.20;;;8.13;;
16330;SDS011;8275;48.206;16.340;2023-08-24T01:00:36;7.13;;;6.55;;
16330;SDS011;8275;48.206;16.340;2023-08-24T01:03:07;8.75;;;7.85;;
16330;SDS011;8275;48.206;16.340;2023-08-24T01:05:36;7.47;;;6.85;;
16330;SDS011;8275;48.206;16.340;2023-08-24T01:08:04;7.80;;;7.05;;
16330;SDS011;8275;48.206;16.340;2023-08-24T01:10:35;9.48;;;6.80;;
16330;SDS011;8275;48.206;16.340;2023-08-24T01:13:16;7.93;;;7.13;;
16330;SDS011;8275;48.206;16.340;2023-08-24T01:15:56;6.85;;;6.35;;
16330;SDS011;8275;48.206;16.340;2023-08-24T01:18:32;6.95;;;6.35;;
16330;SDS011;8275;48.206;16.340;2023-08-24T01:21:02;7.85;;;6.95;;
16330;SDS011;8275;48.206;16.340;2023-08-24T01:23:34;9.00;;;8.15;;
16330;SDS011;8275;48.206;16.340;2023-08-24T01:26:12;7.63;;;6.95;;
16330;SDS011;8275;48.206;16.340;2023-08-24T01:28:44;7.38;;;6.82;;
16330;SDS011;8275;48.206;16.340;2023-08-24T01:31:14;7.25;;;6.65;;
16330;SDS011;8275;48.206;16.340;2023-08-24T01:33:44;7.38;;;6.57;;
16330;SDS011;8275;48.206;16.340;2023-08-24T01:36:13;7.57;;;6.88;;
16330;SDS011;8275;48.206;16.340;2023-08-24T01:38:44;7.40;;;6.80;;
16330;SDS011;8275;48.206;16.340;2023-08-24T01:41:19;7.13;;;6.63;;
16330;SDS011;8275;48.206;16.340;2023-08-24T01:43:55;7.35;;;6.75;;
16330;SDS011;8275;48.206;16.340;2023-08-24T01:46:26;6.45;;;6.05;;
16330;SDS011;8275;48.206;16.340;2023-08-24T01:48:56;6.72;;;6.13;;
16330;SDS011;8275;48.206;16.340;2023-08-24T01:51:25;7.53;;;6.82;;
16330;SDS011;8275;48.206;16.340;2023-08-24T01:53:55;7.85;;;7.25;;
16330;SDS011;8275;48.206;16.340;2023-08-24T01:56:26;8.10;;;7.40;;
16330;SDS011;8275;48.206;16.340;2023-08-24T01:58:54;8.48;;;7.53;;
16330;SDS011;8275;48.206;16.340;2023-08-24T02:01:23;7.30;;;6.60;;
16330;SDS011;8275;48.206;16.340;2023-08-24T02:03:52;7.82;;;7.13;;
16330;SDS011;8275;48.206;16.340;2023-08-24T02:06:21;7.22;;;6.63;;
16330;SDS011;8275;48.206;16.340;2023-08-24T02:08:49;7.10;;;6.55;;
16330;SDS011;8275;48.206;16.340;2023-08-24T02:11:17;7.50;;;6.72;;
16330;SDS011;8275;48.206;16.340;2023-08-24T02:13:47;7.60;;;6.90;;
16330;SDS011;8275;48.206;16.340;2023-08-24T02:16:15;6.72;;;6.22;;
16330;SDS011;8275;48.206;16.340;2023-08-24T02:18:44;9.32;;;8.35;;
16330;SDS011;8275;48.206;16.340;2023-08-24T02:21:12;10.35;;;6.53;;
16330;SDS011;8275;48.206;16.340;2023-08-24T02:23:42;9.60;;;6.53;;
16330;SDS011;8275;48.206;16.340;2023-08-24T02:26:11;8.55;;;7.70;;
16330;SDS011;8275;48.206;16.340;2023-08-24T02:28:39;8.27;;;7.60;;
16330;SDS011;8275;48.206;16.340;2023-08-24T02:31:09;7.75;;;7.18;;
16330;SDS011;8275;48.206;16.340;2023-08-24T02:33:38;7.20;;;6.70;;
16330;SDS011;8275;48.206;16.340;2023-08-24T02:36:06;8.45;;;7.72;;
16330;SDS011;8275;48.206;16.340;2023-08-24T02:38:35;7.82;;;7.25;;
16330;SDS011;8275;48.206;16.340;2023-08-24T02:41:03;6.25;;;5.65;;
16330;SDS011;8275;48.206;16.340;2023-08-24T02:43:33;8.98;;;8.18;;
16330;SDS011;8275;48.206;16.340;2023-08-24T02:46:03;7.70;;;7.00;;
16330;SDS011;8275;48.206;16.340;2023-08-24T02:48:35;7.30;;;6.75;;
16330;SDS011;8275;48.206;16.340;2023-08-24T02:51:04;8.38;;;7.68;;
16330;SDS011;8275;48.206;16.340;2023-08-24T02:53:33;7.63;;;7.03;;
16330;SDS011;8275;48.206;16.340;2023-08-24T02:56:02;7.82;;;7.03;;
16330;SDS011;8275;48.206;16.340;2023-08-24T02:58:31;8.07;;;7.38;;
16330;SDS011;8275;48.206;16.340;2023-08-24T03:01:03;7.00;;;6.45;;
16330;SDS011;8275;48.206;16.340;2023-08-24T03:03:35;8.60;;;7.32;;
16330;SDS011;8275;48.206;16.340;2023-08-24T03:06:05;6.88;;;6.38;;
16330;SDS011;8275;48.206;16.340;2023-08-24T03:08:36;8.27;;;7.57;;
16330;SDS011;8275;48.206;16.340;2023-08-24T03:11:04;8.57;;;7.75;;
16330;SDS011;8275;48.206;16.340;2023-08-24T03:13:35;8.27;;;7.40;;
16330;SDS011;8275;48.206;16.340;2023-08-24T03:16:05;14.75;;;7.72;;
16330;SDS011;8275;48.206;16.340;2023-08-24T03:18:36;9.73;;;8.60;;
16330;SDS011;8275;48.206;16.340;2023-08-24T03:21:04;8.43;;;7.75;;
16330;SDS011;8275;48.206;16.340;2023-08-24T03:23:33;9.38;;;8.48;;
16330;SDS011;8275;48.206;16.340;2023-08-24T03:26:01;10.13;;;8.40;;
16330;SDS011;8275;48.206;16.340;2023-08-24T03:28:30;9.23;;;7.03;;
16330;SDS011;8275;48.206;16.340;2023-08-24T03:30:59;7.30;;;6.70;;
16330;SDS011;8275;48.206;16.340;2023-08-24T03:33:28;9.60;;;7.28;;
16330;SDS011;8275;48.206;16.340;2023-08-24T03:35:58;7.35;;;6.65;;
16330;SDS011;8275;48.206;16.340;2023-08-24T03:38:27;8.20;;;7.43;;
16330;SDS011;8275;48.206;16.340;2023-08-24T03:40:59;7.93;;;7.32;;
16330;SDS011;8275;48.206;16.340;2023-08-24T03:43:31;10.15;;;7.45;;
16330;SDS011;8275;48.206;16.340;2023-08-24T03:46:00;6.85;;;6.18;;
16330;SDS011;8275;48.206;16.340;2023-08-24T03:48:30;8.02;;;6.97;;
16330;SDS011;8275;48.206;16.340;2023-08-24T03:51:01;7.35;;;6.60;;
16330;SDS011;8275;48.206;16.340;2023-08-24T03:53:29;8.10;;;7.28;;
16330;SDS011;8275;48.206;16.340;2023-08-24T03:55:58;6.70;;;6.00;;
16330;SDS011;8275;48.206;16.340;2023-08-24T03:58:27;8.57;;;7.88;;
16330;SDS011;8275;48.206;16.340;2023-08-24T04:00:56;8.80;;;7.20;;
16330;SDS011;8275;48.206;16.340;2023-08-24T04:03:25;8.05;;;7.30;;
16330;SDS011;8275;48.206;16.340;2023-08-24T04:05:53;9.23;;;7.78;;
16330;SDS011;8275;48.206;16.340;2023-08-24T04:08:23;6.97;;;6.32;;
16330;SDS011;8275;48.206;16.340;2023-08-24T04:10:52;8.18;;;6.85;;
16330;SDS011;8275;48.206;16.340;2023-08-24T04:13:20;6.82;;;6.20;;
16330;SDS011;8275;48.206;16.340;2023-08-24T04:15:49;8.50;;;7.90;;
16330;SDS011;8275;48.206;16.340;2023-08-24T04:18:18;9.63;;;7.40;;
16330;SDS011;8275;48.206;16.340;2023-08-24T04:20:46;7.70;;;6.95;;
16330;SDS011;8275;48.206;16.340;2023-08-24T04:23:15;7.43;;;6.63;;
16330;SDS011;8275;48.206;16.340;2023-08-24T04:25:45;8.20;;;7.60;;
16330;SDS011;8275;48.206;16.340;2023-08-24T04:28:14;7.40;;;6.80;;
16330;SDS011;8275;48.206;16.340;2023-08-24T04:30:48;8.35;;;7.55;;
16330;SDS011;8275;48.206;16.340;2023-08-24T04:33:18;7.80;;;7.15;;
16330;SDS011;8275;48.206;16.340;2023-08-24T04:35:47;8.40;;;7.65;;
16330;SDS011;8275;48.206;16.340;2023-08-24T04:38:15;7.78;;;7.13;;
16330;SDS011;8275;48.206;16.340;2023-08-24T04:40:47;9.57;;;8.27;;
16330;SDS011;8275;48.206;16.340;2023-08-24T04:43:19;9.02;;;7.35;;
16330;SDS011;8275;48.206;16.340;2023-08-24T04:45:49;8.45;;;7.65;;
16330;SDS011;8275;48.206;16.340;2023-08-24T04:48:19;7.70;;;7.00;;
16330;SDS011;8275;48.206;16.340;2023-08-24T04:50:48;8.65;;;7.95;;
16330;SDS011;8275;48.206;16.340;2023-08-24T04:53:19;10.15;;;9.13;;
16330;SDS011;8275;48.206;16.340;2023-08-24T04:55:49;8.05;;;7.43;;
16330;SDS011;8275;48.206;16.340;2023-08-24T04:58:18;8.23;;;7.63;;
16330;SDS011;8275;48.206;16.340;2023-08-24T05:00:47;9.13;;;8.32;;
16330;SDS011;8275;48.206;16.340;2023-08-24T05:03:16;10.32;;;8.18;;
16330;SDS011;8275;48.206;16.340;2023-08-24T05:05:46;8.82;;;7.95;;
16330;SDS011;8275;48.206;16.340;2023-08-24T05:08:15;8.95;;;8.07;;
16330;SDS011;8275;48.206;16.340;2023-08-24T05:10:43;8.73;;;8.02;;
16330;SDS011;8275;48.206;16.340;2023-08-24T05:13:14;8.57;;;7.53;;
16330;SDS011;8275;48.206;16.340;2023-08-24T05:15:42;7.97;;;7.18;;
16330;SDS011;8275;48.206;16.340;2023-08-24T05:18:11;8.32;;;7.53;;
16330;SDS011;8275;48.206;16.340;2023-08-24T05:20:39;8.15;;;7.30;;
16330;SDS011;8275;48.206;16.340;2023-08-24T05:23:08;9.60;;;8.70;;
16330;SDS011;8275;48.206;16.340;2023-08-24T05:25:37;9.80;;;8.13;;
16330;SDS011;8275;48.206;16.340;2023-08-24T05:28:05;8.68;;;7.88;;
16330;SDS011;8275;48.206;16.340;2023-08-24T05:30:35;8.43;;;7.03;;
16330;SDS011;8275;48.206;16.340;2023-08-24T05:33:04;8.85;;;7.93;;
16330;SDS011;8275;48.206;16.340;2023-08-24T05:35:32;7.68;;;6.88;;
16330;SDS011;8275;48.206;16.340;2023-08-24T05:38:01;6.90;;;6.25;;
16330;SDS011;8275;48.206;16.340;2023-08-24T05:40:30;8.95;;;7.95;;
16330;SDS011;8275;48.206;16.340;2023-08-24T05:43:01;9.27;;;7.65;;
16330;SDS011;8275;48.206;16.340;2023-08-24T05:45:30;8.48;;;7.65;;
16330;SDS011;8275;48.206;16.340;2023-08-24T05:48:00;8.90;;;7.72;;
16330;SDS011;8275;48.206;16.340;2023-08-24T05:50:28;8.07;;;7.20;;
16330;SDS011;8275;48.206;16.340;2023-08-24T05:52:57;8.52;;;6.70;;
16330;SDS011;8275;48.206;16.340;2023-08-24T05:55:25;8.15;;;7.25;;
16330;SDS011;8275;48.206;16.340;2023-08-24T05:57:54;8.55;;;7.95;;
16330;SDS011;8275;48.206;16.340;2023-08-24T06:00:22;8.82;;;8.02;;
16330;SDS011;8275;48.206;16.340;2023-08-24T06:02:51;10.07;;;9.02;;
16330;SDS011;8275;48.206;16.340;2023-08-24T06:05:21;8.05;;;7.45;;
16330;SDS011;8275;48.206;16.340;2023-08-24T06:07:49;10.05;;;8.00;;
16330;SDS011;8275;48.206;16.340;2023-08-24T06:10:19;9.30;;;8.20;;
16330;SDS011;8275;48.206;16.340;2023-08-24T06:12:48;10.23;;;9.23;;
16330;SDS011;8275;48.206;16.340;2023-08-24T06:15:17;10.90;;;8.85;;
16330;SDS011;8275;48.206;16.340;2023-08-24T06:17:45;13.45;;;9.27;;
16330;SDS011;8275;48.206;16.340;2023-08-24T06:20:16;12.10;;;9.63;;
16330;SDS011;8275;48.206;16.340;2023-08-24T06:22:46;10.63;;;9.73;;
16330;SDS011;8275;48.206;16.340;2023-08-24T06:25:16;10.00;;;9.18;;
16330;SDS011;8275;48.206;16.340;2023-08-24T06:27:45;9.93;;;8.93;;
16330;SDS011;8275;48.206;16.340;2023-08-24T06:30:15;10.80;;;9.57;;
16330;SDS011;8275;48.206;16.340;2023-08-24T06:32:43;13.30;;;11.50;;
16330;SDS011;8275;48.206;16.340;2023-08-24T06:35:12;11.57;;;9.98;;
16330;SDS011;8275;48.206;16.340;2023-08-24T06:37:42;10.65;;;9.63;;
16330;SDS011;8275;48.206;16.340;2023-08-24T06:40:12;11.55;;;9.60;;
16330;SDS011;8275;48.206;16.340;2023-08-24T06:42:41;13.52;;;9.70;;
16330;SDS011;8275;48.206;16.340;2023-08-24T06:45:09;15.63;;;8.90;;
16330;SDS011;8275;48.206;16.340;2023-08-24T06:47:38;12.55;;;10.43;;
16330;SDS011;8275;48.206;16.340;2023-08-24T06:50:07;11.73;;;9.73;;
16330;SDS011;8275;48.206;16.340;2023-08-24T06:52:37;13.07;;;8.23;;
16330;SDS011;8275;48.206;16.340;2023-08-24T06:55:06;11.80;;;9.15;;
16330;SDS011;8275;48.206;16.340;2023-08-24T06:57:38;11.63;;;10.38;;
16330;SDS011;8275;48.206;16.340;2023-08-24T07:00:07;11.88;;;10.40;;
16330;SDS011;8275;48.206;16.340;2023-08-24T07:02:41;17.15;;;9.95;;
16330;SDS011;8275;48.206;16.340;2023-08-24T07:05:09;11.68;;;9.55;;
16330;SDS011;8275;48.206;16.340;2023-08-24T07:07:39;14.25;;;9.90;;
16330;SDS011;8275;48.206;16.340;2023-08-24T07:10:09;33.35;;;13.52;;
16330;SDS011;8275;48.206;16.340;2023-08-24T07:12:40;10.55;;;8.60;;
16330;SDS011;8275;48.206;16.340;2023-08-24T07:15:09;10.18;;;9.25;;
16330;SDS011;8275;48.206;16.340;2023-08-24T07:17:38;41.17;;;12.73;;
16330;SDS011;8275;48.206;16.340;2023-08-24T07:20:08;69.82;;;17.38;;
16330;SDS011;8275;48.206;16.340;2023-08-24T07:22:38;21.35;;;11.32;;
16330;SDS011;8275;48.206;16.340;2023-08-24T07:25:07;10.68;;;9.75;;
16330;SDS011;8275;48.206;16.340;2023-08-24T07:27:37;15.23;;;11.00;;
16330;SDS011;8275;48.206;16.340;2023-08-24T07:30:08;33.20;;;13.10;;
16330;SDS011;8275;48.206;16.340;2023-08-24T07:32:58;10.23;;;9.32;;
16330;SDS011;8275;48.206;16.340;2023-08-24T07:35:27;11.20;;;9.95;;
16330;SDS011;8275;48.206;16.340;2023-08-24T07:37:56;15.32;;;10.25;;
16330;SDS011;8275;48.206;16.340;2023-08-24T07:40:25;29.35;;;12.63;;
16330;SDS011;8275;48.206;16.340;2023-08-24T07:42:55;13.82;;;9.45;;
16330;SDS011;8275;48.206;16.340;2023-08-24T07:45:24;40.00;;;12.48;;
16330;SDS011;8275;48.206;16.340;2023-08-24T07:47:53;21.60;;;10.20;;
16330;SDS011;8275;48.206;16.340;2023-08-24T07:50:22;15.13;;;10.70;;
16330;SDS011;8275;48.206;16.340;2023-08-24T07:52:50;11.63;;;9.43;;
16330;SDS011;8275;48.206;16.340;2023-08-24T07:55:23;12.40;;;10.63;;
16330;SDS011;8275;48.206;16.340;2023-08-24T07:57:52;23.15;;;10.45;;
16330;SDS011;8275;48.206;16.340;2023-08-24T08:00:22;10.30;;;9.30;;
16330;SDS011;8275;48.206;16.340;2023-08-24T08:02:51;9.88;;;9.00;;
16330;SDS011;8275;48.206;16.340;2023-08-24T08:05:20;8.40;;;7.70;;
16330;SDS011;8275;48.206;16.340;2023-08-24T08:07:50;10.27;;;9.55;;
16330;SDS011;8275;48.206;16.340;2023-08-24T08:10:19;15.90;;;9.20;;
16330;SDS011;8275;48.206;16.340;2023-08-24T08:12:48;11.27;;;9.88;;
16330;SDS011;8275;48.206;16.340;2023-08-24T08:15:16;11.85;;;9.57;;
16330;SDS011;8275;48.206;16.340;2023-08-24T08:17:47;11.10;;;10.00;;
16330;SDS011;8275;48.206;16.340;2023-08-24T08:20:16;11.98;;;9.70;;
16330;SDS011;8275;48.206;16.340;2023-08-24T08:22:45;10.60;;;8.73;;
16330;SDS011;8275;48.206;16.340;2023-08-24T08:25:14;10.80;;;9.77;;
16330;SDS011;8275;48.206;16.340;2023-08-24T08:27:44;10.20;;;9.25;;
16330;SDS011;8275;48.206;16.340;2023-08-24T08:30:13;8.95;;;8.10;;
16330;SDS011;8275;48.206;16.340;2023-08-24T08:32:42;14.38;;;9.80;;
16330;SDS011;8275;48.206;16.340;2023-08-24T08:35:12;8.90;;;8.13;;
16330;SDS011;8275;48.206;16.340;2023-08-24T08:37:41;9.95;;;8.20;;
16330;SDS011;8275;48.206;16.340;2023-08-24T08:40:10;11.45;;;10.55;;
16330;SDS011;8275;48.206;16.340;2023-08-24T08:42:40;27.95;;;10.93;;
16330;SDS011;8275;48.206;16.340;2023-08-24T08:45:09;9.23;;;8.40;;
16330;SDS011;8275;48.206;16.340;2023-08-24T08:47:38;10.88;;;9.13;;
16330;SDS011;8275;48.206;16.340;2023-08-24T08:50:08;9.48;;;8.68;;
16330;SDS011;8275;48.206;16.340;2023-08-24T08:52:39;9.20;;;8.38;;
16330;SDS011;8275;48.206;16.340;2023-08-24T08:55:08;19.63;;;9.57;;
16330;SDS011;8275;48.206;16.340;2023-08-24T08:57:37;14.20;;;9.55;;
16330;SDS011;8275;48.206;16.340;2023-08-24T09:00:09;14.52;;;10.25;;
16330;SDS011;8275;48.206;16.340;2023-08-24T09:02:42;10.32;;;8.40;;
16330;SDS011;8275;48.206;16.340;2023-08-24T09:05:12;8.85;;;8.15;;
16330;SDS011;8275;48.206;16.340;2023-08-24T09:07:43;14.82;;;10.43;;
16330;SDS011;8275;48.206;16.340;2023-08-24T09:10:14;10.00;;;9.00;;
16330;SDS011;8275;48.206;16.340;2023-08-24T09:12:42;8.77;;;8.07;;
16330;SDS011;8275;48.206;16.340;2023-08-24T09:15:11;11.98;;;8.95;;
16330;SDS011;8275;48.206;16.340;2023-08-24T09:17:43;13.80;;;8.55;;
16330;SDS011;8275;48.206;16.340;2023-08-24T09:20:12;9.63;;;8.38;;
16330;SDS011;8275;48.206;16.340;2023-08-24T09:22:44;13.52;;;7.75;;
16330;SDS011;8275;48.206;16.340;2023-08-24T09:25:12;11.45;;;8.52;;
16330;SDS011;8275;48.206;16.340;2023-08-24T09:27:41;10.27;;;7.88;;
16330;SDS011;8275;48.206;16.340;2023-08-24T09:30:10;13.40;;;8.75;;
16330;SDS011;8275;48.206;16.340;2023-08-24T09:32:39;8.80;;;6.93;;
16330;SDS011;8275;48.206;16.340;2023-08-24T09:35:11;8.82;;;8.02;;
16330;SDS011;8275;48.206;16.340;2023-08-24T09:37:40;11.27;;;7.85;;
16330;SDS011;8275;48.206;16.340;2023-08-24T09:40:13;8.38;;;7.57;;
16330;SDS011;8275;48.206;16.340;2023-08-24T09:42:42;8.55;;;7.60;;
16330;SDS011;8275;48.206;16.340;2023-08-24T09:45:12;9.32;;;8.43;;
16330;SDS011;8275;48.206;16.340;2023-08-24T09:47:45;11.20;;;8.10;;
16330;SDS011;8275;48.206;16.340;2023-08-24T09:50:17;9.48;;;8.23;;
16330;SDS011;8275;48.206;16.340;2023-08-24T09:52:46;7.85;;;7.25;;
16330;SDS011;8275;48.206;16.340;2023-08-24T09:55:20;8.13;;;7.53;;
16330;SDS011;8275;48.206;16.340;2023-08-24T09:57:52;7.80;;;7.20;;
16330;SDS011;8275;48.206;16.340;2023-08-24T10:00:23;8.82;;;7.93;;
16330;SDS011;8275;48.206;16.340;2023-08-24T10:02:54;7.47;;;6.70;;
16330;SDS011;8275;48.206;16.340;2023-08-24T10:05:24;14.13;;;7.65;;
16330;SDS011;8275;48.206;16.340;2023-08-24T10:08:06;10.23;;;8.38;;
16330;SDS011;8275;48.206;16.340;2023-08-24T10:10:39;8.15;;;7.32;;
16330;SDS011;8275;48.206;16.340;2023-08-24T10:13:12;8.70;;;8.00;;
16330;SDS011;8275;48.206;16.340;2023-08-24T10:15:48;8.77;;;7.43;;
16330;SDS011;8275;48.206;16.340;2023-08-24T10:18:18;9.55;;;8.65;;
16330;SDS011;8275;48.206;16.340;2023-08-24T10:20:50;8.98;;;7.97;;
16330;SDS011;8275;48.206;16.340;2023-08-24T10:23:20;9.75;;;8.73;;
16330;SDS011;8275;48.206;16.340;2023-08-24T10:25:51;9.13;;;8.18;;
16330;SDS011;8275;48.206;16.340;2023-08-24T10:28:21;10.02;;;8.88;;
16330;SDS011;8275;48.206;16.340;2023-08-24T10:30:52;8.40;;;7.50;;
16330;SDS011;8275;48.206;16.340;2023-08-24T10:33:21;8.38;;;7.10;;
16330;SDS011;8275;48.206;16.340;2023-08-24T10:35:53;8.13;;;7.53;;
16330;SDS011;8275;48.206;16.340;2023-08-24T10:38:24;9.60;;;7.00;;
16330;SDS011;8275;48.206;16.340;2023-08-24T10:41:02;8.63;;;7.60;;
16330;SDS011;8275;48.206;16.340;2023-08-24T10:43:34;9.00;;;7.20;;
16330;SDS011;8275;48.206;16.340;2023-08-24T10:46:03;12.05;;;7.97;;
16330;SDS011;8275;48.206;16.340;2023-08-24T10:51:25;8.20;;;7.43;;
16330;SDS011;8275;48.206;16.340;2023-08-24T10:53:55;8.73;;;6.85;;
16330;SDS011;8275;48.206;16.340;2023-08-24T10:56:31;8.27;;;7.53;;
16330;SDS011;8275;48.206;16.340;2023-08-24T10:59:13;8.38;;;7.78;;
16330;SDS011;8275;48.206;16.340;2023-08-24T11:01:43;12.82;;;8.02;;
16330;SDS011;8275;48.206;16.340;2023-08-24T11:04:22;9.10;;;8.02;;
16330;SDS011;8275;48.206;16.340;2023-08-24T11:06:52;7.10;;;6.50;;
16330;SDS011;8275;48.206;16.340;2023-08-24T11:09:22;7.47;;;6.85;;
16330;SDS011;8275;48.206;16.340;2023-08-24T11:11:56;10.75;;;7.43;;
16330;SDS011;8275;48.206;16.340;2023-08-24T11:14:27;8.40;;;7.78;;
16330;SDS011;8275;48.206;16.340;2023-08-24T11:16:58;8.05;;;7.40;;
16330;SDS011;8275;48.206;16.340;2023-08-24T11:19:28;7.63;;;7.03;;
16330;SDS011;8275;48.206;16.340;2023-08-24T11:21:57;8.52;;;7.63;;
16330;SDS011;8275;48.206;16.340;2023-08-24T11:24:26;11.13;;;7.32;;
16330;SDS011;8275;48.206;16.340;2023-08-24T11:26:57;11.82;;;8.60;;
16330;SDS011;8275;48.206;16.340;2023-08-24T11:29:28;14.95;;;8.52;;
16330;SDS011;8275;48.206;16.340;2023-08-24T11:31:57;7.07;;;6.47;;
16330;SDS011;8275;48.206;16.340;2023-08-24T11:34:26;16.98;;;8.85;;
16330;SDS011;8275;48.206;16.340;2023-08-24T11:36:55;9.23;;;8.45;;
16330;SDS011;8275;48.206;16.340;2023-08-24T11:39:24;9.52;;;8.63;;
16330;SDS011;8275;48.206;16.340;2023-08-24T11:41:59;8.75;;;7.85;;
16330;SDS011;8275;48.206;16.340;2023-08-24T11:44:40;8.75;;;7.97;;
16330;SDS011;8275;48.206;16.340;2023-08-24T11:47:13;9.82;;;7.15;;
16330;SDS011;8275;48.206;16.340;2023-08-24T11:49:42;9.82;;;6.78;;
16330;SDS011;8275;48.206;16.340;2023-08-24T11:52:11;28.48;;;9.52;;
16330;SDS011;8275;48.206;16.340;2023-08-24T11:54:42;19.65;;;9.52;;
16330;SDS011;8275;48.206;16.340;2023-08-24T11:57:13;12.88;;;7.07;;
16330;SDS011;8275;48.206;16.340;2023-08-24T11:59:42;8.77;;;7.65;;
16330;SDS011;8275;48.206;16.340;2023-08-24T12:02:12;8.25;;;7.22;;
16330;SDS011;8275;48.206;16.340;2023-08-24T12:04:41;16.27;;;8.77;;
16330;SDS011;8275;48.206;16.340;2023-08-24T12:07:10;7.65;;;6.88;;
16330;SDS011;8275;48.206;16.340;2023-08-24T12:09:39;7.50;;;6.90;;
16330;SDS011;8275;48.206;16.340;2023-08-24T12:12:12;7.88;;;7.13;;
16330;SDS011;8275;48.206;16.340;2023-08-24T12:14:42;9.77;;;7.85;;
16330;SDS011;8275;48.206;16.340;2023-08-24T12:17:12;12.10;;;7.45;;
16330;SDS011;8275;48.206;16.340;2023-08-24T12:19:41;7.85;;;7.07;;
16330;SDS011;8275;48.206;16.340;2023-08-24T12:22:14;19.35;;;10.20;;
16330;SDS011;8275;48.206;16.340;2023-08-24T12:24:43;10.23;;;7.43;;
16330;SDS011;8275;48.206;16.340;2023-08-24T12:27:21;7.35;;;6.70;;
16330;SDS011;8275;48.206;16.340;2023-08-24T12:29:52;8.30;;;7.70;;
16330;SDS011;8275;48.206;16.340;2023-08-24T12:32:21;7.78;;;7.18;;
16330;SDS011;8275;48.206;16.340;2023-08-24T12:34:52;6.85;;;6.35;;
16330;SDS011;8275;48.206;16.340;2023-08-24T12:37:21;8.68;;;7.85;;
16330;SDS011;8275;48.206;16.340;2023-08-24T12:39:50;9.95;;;7.93;;
16330;SDS011;8275;48.206;16.340;2023-08-24T12:42:18;16.33;;;9.43;;
16330;SDS011;8275;48.206;16.340;2023-08-24T12:44:48;8.57;;;7.30;;
16330;SDS011;8275;48.206;16.340;2023-08-24T12:47:17;7.78;;;7.18;;
16330;SDS011;8275;48.206;16.340;2023-08-24T12:49:46;7.22;;;6.60;;
16330;SDS011;8275;48.206;16.340;2023-08-24T12:52:14;7.55;;;6.78;;
16330;SDS011;8275;48.206;16.340;2023-08-24T12:54:43;6.82;;;6.22;;
16330;SDS011;8275;48.206;16.340;2023-08-24T12:57:11;6.32;;;5.82;;
16330;SDS011;8275;48.206;16.340;2023-08-24T12:59:42;7.03;;;6.43;;
16330;SDS011;8275;48.206;16.340;2023-08-24T13:02:10;7.50;;;6.93;;
16330;SDS011;8275;48.206;16.340;2023-08-24T13:04:54;6.43;;;5.65;;
16330;SDS011;8275;48.206;16.340;2023-08-24T13:07:28;8.93;;;5.63;;
16330;SDS011;8275;48.206;16.340;2023-08-24T13:09:56;7.53;;;6.93;;
16330;SDS011;8275;48.206;16.340;2023-08-24T13:12:25;10.50;;;6.50;;
16330;SDS011;8275;48.206;16.340;2023-08-24T13:14:55;6.45;;;5.90;;
16330;SDS011;8275;48.206;16.340;2023-08-24T13:17:23;7.32;;;6.72;;
16330;SDS011;8275;48.206;16.340;2023-08-24T13:19:52;7.72;;;7.00;;
16330;SDS011;8275;48.206;16.340;2023-08-24T13:22:21;7.53;;;6.82;;
16330;SDS011;8275;48.206;16.340;2023-08-24T13:24:49;7.78;;;7.22;;
16330;SDS011;8275;48.206;16.340;2023-08-24T13:27:18;7.07;;;6.57;;
16330;SDS011;8275;48.206;16.340;2023-08-24T13:29:46;10.05;;;7.45;;
16330;SDS011;8275;48.206;16.340;2023-08-24T13:32:16;11.68;;;8.20;;
16330;SDS011;8275;48.206;16.340;2023-08-24T13:34:46;6.82;;;6.03;;
16330;SDS011;8275;48.206;16.340;2023-08-24T13:37:14;6.70;;;6.10;;
16330;SDS011;8275;48.206;16.340;2023-08-24T13:39:43;25.20;;;7.57;;
16330;SDS011;8275;48.206;16.340;2023-08-24T13:42:11;7.50;;;6.75;;
16330;SDS011;8275;48.206;16.340;2023-08-24T13:44:40;7.78;;;7.18;;
16330;SDS011;8275;48.206;16.340;2023-08-24T13:47:09;15.82;;;9.05;;
16330;SDS011;8275;48.206;16.340;2023-08-24T13:49:39;11.57;;;7.13;;
16330;SDS011;8275;48.206;16.340;2023-08-24T13:52:08;8.70;;;7.13;;
16330;SDS011;8275;48.206;16.340;2023-08-24T13:54:36;7.57;;;6.43;;
16330;SDS011;8275;48.206;16.340;2023-08-24T13:57:05;7.97;;;7.18;;
16330;SDS011;8275;48.206;16.340;2023-08-24T13:59:33;9.88;;;6.50;;
16330;SDS011;8275;48.206;16.340;2023-08-24T14:02:02;6.82;;;6.32;;
16330;SDS011;8275;48.206;16.340;2023-08-24T14:04:34;8.43;;;6.45;;
16330;SDS011;8275;48.206;16.340;2023-08-24T14:07:04;7.28;;;6.60;;
16330;SDS011;8275;48.206;16.340;2023-08-24T14:09:33;6.38;;;5.88;;
16330;SDS011;8275;48.206;16.340;2023-08-24T14:12:03;9.63;;;6.38;;
16330;SDS011;8275;48.206;16.340;2023-08-24T14:14:32;6.50;;;6.00;;
16330;SDS011;8275;48.206;16.340;2023-08-24T14:17:00;8.90;;;6.97;;
16330;SDS011;8275;48.206;16.340;2023-08-24T14:19:31;7.18;;;6.57;;
16330;SDS011;8275;48.206;16.340;2023-08-24T14:21:59;6.97;;;6.38;;
16330;SDS011;8275;48.206;16.340;2023-08-24T14:24:29;6.30;;;5.80;;
16330;SDS011;8275;48.206;16.340;2023-08-24T14:27:01;6.85;;;6.25;;
16330;SDS011;8275;48.206;16.340;2023-08-24T14:29:29;6.80;;;6.30;;
16330;SDS011;8275;48.206;16.340;2023-08-24T14:31:58;6.75;;;6.00;;
16330;SDS011;8275;48.206;16.340;2023-08-24T14:34:26;8.98;;;6.72;;
16330;SDS011;8275;48.206;16.340;2023-08-24T14:36:55;7.70;;;5.63;;
16330;SDS011;8275;48.206;16.340;2023-08-24T14:39:23;6.80;;;6.10;;
16330;SDS011;8275;48.206;16.340;2023-08-24T14:41:53;6.22;;;5.72;;
16330;SDS011;8275;48.206;16.340;2023-08-24T14:44:22;7.22;;;6.72;;
16330;SDS011;8275;48.206;16.340;2023-08-24T14:46:51;12.52;;;6.90;;
16330;SDS011;8275;48.206;16.340;2023-08-24T14:49:20;6.47;;;6.03;;
16330;SDS011;8275;48.206;16.340;2023-08-24T14:51:49;7.95;;;7.18;;
16330;SDS011;8275;48.206;16.340;2023-08-24T14:54:17;6.93;;;6.32;;
16330;SDS011;8275;48.206;16.340;2023-08-24T14:56:46;7.90;;;7.28;;
16330;SDS011;8275;48.206;16.340;2023-08-24T14:59:16;7.28;;;6.65;;
16330;SDS011;8275;48.206;16.340;2023-08-24T15:01:44;11.73;;;6.45;;